sensor_id;sensor_type;location;lat;lon;timestamp;P1;durP1;ratioP1;P2;durP2;ratioP2
39188;SDS011;24915;50.858;4.376;2022-11-15T00:00:32;33.75;;;20.58;;
39188;SDS011;24915;50.858;4.376;2022-11-15T00:02:57;31.95;;;20.92;;
39188;SDS011;24915;50.858;4.376;2022-11-15T00:05:23;34.95;;;20.33;;
39188;SDS011;24915;50.858;4.376;2022-11-15T00:07:49;31.48;;;21.38;;
39188;SDS011;24915;50.858;4.376;2022-11-15T00:10:15;32.30;;;21.13;;
39188;SDS011;24915;50.858;4.376;2022-11-15T00:12:41;37.30;;;22.02;;
39188;SDS011;24915;50.858;4.376;2022-11-15T00:15:06;32.92;;;21.88;;
39188;SDS011;24915;50.858;4.376;2022-11-15T00:17:32;35.03;;;21.08;;
39188;SDS011;24915;50.858;4.376;2022-11-15T00:19:58;31.60;;;21.33;;
39188;SDS011;24915;50.858;4.376;2022-11-15T00:22:24;35.65;;;21.73;;
39188;SDS011;24915;50.858;4.376;2022-11-15T00:24:49;33.05;;;21.73;;
39188;SDS011;24915;50.858;4.376;2022-11-15T00:27:15;33.95;;;21.65;;
39188;SDS011;24915;50.858;4.376;2022-11-15T00:29:40;41.42;;;22.77;;
39188;SDS011;24915;50.858;4.376;2022-11-15T00:32:10;36.28;;;22.15;;
39188;SDS011;24915;50.858;4.376;2022-11-15T00:34:36;34.83;;;22.58;;
39188;SDS011;24915;50.858;4.376;2022-11-15T00:37:02;30.85;;;22.17;;
39188;SDS011;24915;50.858;4.376;2022-11-15T00:39:27;32.53;;;22.00;;
39188;SDS011;24915;50.858;4.376;2022-11-15T00:41:53;33.42;;;22.30;;
39188;SDS011;24915;50.858;4.376;2022-11-15T00:44:19;33.97;;;21.45;;
39188;SDS011;24915;50.858;4.376;2022-11-15T00:46:44;38.08;;;22.50;;
39188;SDS011;24915;50.858;4.376;2022-11-15T00:49:10;31.00;;;21.88;;
39188;SDS011;24915;50.858;4.376;2022-11-15T00:51:35;37.30;;;21.63;;
39188;SDS011;24915;50.858;4.376;2022-11-15T00:54:01;37.85;;;22.83;;
39188;SDS011;24915;50.858;4.376;2022-11-15T00:56:27;38.03;;;23.15;;
39188;SDS011;24915;50.858;4.376;2022-11-15T00:58:52;36.42;;;23.33;;
39188;SDS011;24915;50.858;4.376;2022-11-15T01:01:18;35.75;;;23.13;;
39188;SDS011;24915;50.858;4.376;2022-11-15T01:03:44;44.63;;;24.88;;
39188;SDS011;24915;50.858;4.376;2022-11-15T01:06:10;35.55;;;23.02;;
39188;SDS011;24915;50.858;4.376;2022-11-15T01:08:37;40.67;;;24.77;;
39188;SDS011;24915;50.858;4.376;2022-11-15T01:11:05;41.00;;;24.85;;
39188;SDS011;24915;50.858;4.376;2022-11-15T01:13:36;37.58;;;24.75;;
39188;SDS011;24915;50.858;4.376;2022-11-15T01:16:06;37.65;;;24.27;;
39188;SDS011;24915;50.858;4.376;2022-11-15T01:18:41;41.03;;;25.23;;
39188;SDS011;24915;50.858;4.376;2022-11-15T01:21:08;35.83;;;24.50;;
39188;SDS011;24915;50.858;4.376;2022-11-15T01:23:35;45.97;;;24.27;;
39188;SDS011;24915;50.858;4.376;2022-11-15T01:26:02;38.00;;;23.13;;
39188;SDS011;24915;50.858;4.376;2022-11-15T01:28:33;37.75;;;23.42;;
39188;SDS011;24915;50.858;4.376;2022-11-15T01:31:00;36.08;;;24.05;;
39188;SDS011;24915;50.858;4.376;2022-11-15T01:33:27;35.33;;;22.33;;
39188;SDS011;24915;50.858;4.376;2022-11-15T01:35:53;37.92;;;22.48;;
39188;SDS011;24915;50.858;4.376;2022-11-15T01:38:19;33.13;;;21.90;;
39188;SDS011;24915;50.858;4.376;2022-11-15T01:40:45;45.83;;;22.55;;
39188;SDS011;24915;50.858;4.376;2022-11-15T01:45:52;34.88;;;22.30;;
39188;SDS011;24915;50.858;4.376;2022-11-15T01:50:54;32.05;;;20.55;;
39188;SDS011;24915;50.858;4.376;2022-11-15T01:53:20;32.08;;;20.08;;
39188;SDS011;24915;50.858;4.376;2022-11-15T01:55:48;31.15;;;20.33;;
39188;SDS011;24915;50.858;4.376;2022-11-15T01:58:14;31.08;;;20.73;;
39188;SDS011;24915;50.858;4.376;2022-11-15T02:00:40;28.80;;;19.58;;
39188;SDS011;24915;50.858;4.376;2022-11-15T02:03:06;30.52;;;19.10;;
39188;SDS011;24915;50.858;4.376;2022-11-15T02:05:31;36.15;;;19.27;;
39188;SDS011;24915;50.858;4.376;2022-11-15T02:07:59;29.55;;;18.83;;
39188;SDS011;24915;50.858;4.376;2022-11-15T02:10:25;31.17;;;19.75;;
39188;SDS011;24915;50.858;4.376;2022-11-15T02:12:50;33.00;;;19.20;;
39188;SDS011;24915;50.858;4.376;2022-11-15T02:15:17;27.80;;;18.92;;
39188;SDS011;24915;50.858;4.376;2022-11-15T02:17:48;26.20;;;18.35;;
39188;SDS011;24915;50.858;4.376;2022-11-15T02:20:33;29.83;;;19.20;;
39188;SDS011;24915;50.858;4.376;2022-11-15T02:28:42;29.65;;;19.85;;
39188;SDS011;24915;50.858;4.376;2022-11-15T02:31:41;27.23;;;19.05;;
39188;SDS011;24915;50.858;4.376;2022-11-15T02:37:29;30.20;;;18.02;;
39188;SDS011;24915;50.858;4.376;2022-11-15T02:42:43;33.03;;;19.00;;
39188;SDS011;24915;50.858;4.376;2022-11-15T02:45:35;31.80;;;19.05;;
39188;SDS011;24915;50.858;4.376;2022-11-15T02:48:05;29.63;;;18.35;;
39188;SDS011;24915;50.858;4.376;2022-11-15T02:50:32;27.45;;;18.70;;
39188;SDS011;24915;50.858;4.376;2022-11-15T02:52:58;30.92;;;17.83;;
39188;SDS011;24915;50.858;4.376;2022-11-15T02:55:34;26.23;;;17.10;;
39188;SDS011;24915;50.858;4.376;2022-11-15T03:00:35;27.20;;;17.75;;
39188;SDS011;24915;50.858;4.376;2022-11-15T03:11:08;26.42;;;14.68;;
39188;SDS011;24915;50.858;4.376;2022-11-15T03:13:58;26.25;;;14.80;;
39188;SDS011;24915;50.858;4.376;2022-11-15T03:16:37;25.40;;;13.30;;
39188;SDS011;24915;50.858;4.376;2022-11-15T03:21:58;21.05;;;12.18;;
39188;SDS011;24915;50.858;4.376;2022-11-15T03:24:28;18.20;;;12.82;;
39188;SDS011;24915;50.858;4.376;2022-11-15T03:26:55;25.40;;;13.73;;
39188;SDS011;24915;50.858;4.376;2022-11-15T03:29:26;19.42;;;13.45;;
39188;SDS011;24915;50.858;4.376;2022-11-15T03:31:58;22.60;;;12.30;;
39188;SDS011;24915;50.858;4.376;2022-11-15T03:34:29;22.55;;;11.68;;
39188;SDS011;24915;50.858;4.376;2022-11-15T03:37:09;25.95;;;11.82;;
39188;SDS011;24915;50.858;4.376;2022-11-15T03:39:38;18.67;;;11.68;;
39188;SDS011;24915;50.858;4.376;2022-11-15T03:42:07;17.10;;;10.73;;
39188;SDS011;24915;50.858;4.376;2022-11-15T03:47:51;22.52;;;11.15;;
39188;SDS011;24915;50.858;4.376;2022-11-15T03:50:23;19.52;;;11.30;;
39188;SDS011;24915;50.858;4.376;2022-11-15T03:52:50;15.68;;;10.40;;
39188;SDS011;24915;50.858;4.376;2022-11-15T03:55:19;18.65;;;10.55;;
39188;SDS011;24915;50.858;4.376;2022-11-15T03:57:46;18.95;;;9.82;;
39188;SDS011;24915;50.858;4.376;2022-11-15T04:00:15;14.80;;;9.48;;
39188;SDS011;24915;50.858;4.376;2022-11-15T04:02:41;15.80;;;9.90;;
39188;SDS011;24915;50.858;4.376;2022-11-15T04:05:07;14.57;;;9.05;;
39188;SDS011;24915;50.858;4.376;2022-11-15T04:07:33;21.42;;;9.73;;
39188;SDS011;24915;50.858;4.376;2022-11-15T04:09:58;13.48;;;8.85;;
39188;SDS011;24915;50.858;4.376;2022-11-15T04:12:27;15.48;;;8.50;;
39188;SDS011;24915;50.858;4.376;2022-11-15T04:14:57;20.85;;;9.57;;
39188;SDS011;24915;50.858;4.376;2022-11-15T04:17:36;16.67;;;9.48;;
39188;SDS011;24915;50.858;4.376;2022-11-15T04:20:23;14.23;;;8.07;;
39188;SDS011;24915;50.858;4.376;2022-11-15T04:26:08;13.27;;;8.25;;
39188;SDS011;24915;50.858;4.376;2022-11-15T04:28:37;18.13;;;9.00;;
39188;SDS011;24915;50.858;4.376;2022-11-15T04:31:23;17.95;;;8.40;;
39188;SDS011;24915;50.858;4.376;2022-11-15T04:33:49;12.70;;;7.70;;
39188;SDS011;24915;50.858;4.376;2022-11-15T04:36:14;16.60;;;8.15;;
39188;SDS011;24915;50.858;4.376;2022-11-15T04:38:59;15.77;;;8.52;;
39188;SDS011;24915;50.858;4.376;2022-11-15T04:41:24;13.52;;;7.80;;
39188;SDS011;24915;50.858;4.376;2022-11-15T04:43:50;15.20;;;7.50;;
39188;SDS011;24915;50.858;4.376;2022-11-15T04:46:15;10.82;;;6.93;;
39188;SDS011;24915;50.858;4.376;2022-11-15T04:48:41;14.00;;;7.50;;
39188;SDS011;24915;50.858;4.376;2022-11-15T04:51:07;12.30;;;7.47;;
39188;SDS011;24915;50.858;4.376;2022-11-15T04:53:32;13.27;;;6.90;;
39188;SDS011;24915;50.858;4.376;2022-11-15T04:55:58;11.50;;;7.25;;
39188;SDS011;24915;50.858;4.376;2022-11-15T04:58:24;12.23;;;7.40;;
39188;SDS011;24915;50.858;4.376;2022-11-15T05:00:49;11.00;;;6.53;;
39188;SDS011;24915;50.858;4.376;2022-11-15T05:03:15;12.40;;;6.90;;
39188;SDS011;24915;50.858;4.376;2022-11-15T05:08:24;11.68;;;7.10;;
39188;SDS011;24915;50.858;4.376;2022-11-15T05:10:50;20.88;;;7.15;;
39188;SDS011;24915;50.858;4.376;2022-11-15T05:13:16;18.77;;;7.22;;
39188;SDS011;24915;50.858;4.376;2022-11-15T05:15:42;16.05;;;7.32;;
39188;SDS011;24915;50.858;4.376;2022-11-15T05:18:08;18.70;;;7.40;;
39188;SDS011;24915;50.858;4.376;2022-11-15T05:20:33;13.88;;;6.50;;
39188;SDS011;24915;50.858;4.376;2022-11-15T05:22:59;8.48;;;5.30;;
39188;SDS011;24915;50.858;4.376;2022-11-15T05:25:25;13.40;;;5.78;;
39188;SDS011;24915;50.858;4.376;2022-11-15T05:27:51;17.30;;;5.93;;
39188;SDS011;24915;50.858;4.376;2022-11-15T05:30:17;13.43;;;5.43;;
39188;SDS011;24915;50.858;4.376;2022-11-15T05:32:43;22.65;;;5.72;;
39188;SDS011;24915;50.858;4.376;2022-11-15T05:35:12;17.65;;;5.97;;
39188;SDS011;24915;50.858;4.376;2022-11-15T05:37:46;21.35;;;6.00;;
39188;SDS011;24915;50.858;4.376;2022-11-15T05:40:13;10.63;;;5.20;;
39188;SDS011;24915;50.858;4.376;2022-11-15T05:42:39;12.13;;;5.10;;
39188;SDS011;24915;50.858;4.376;2022-11-15T05:45:05;13.65;;;5.45;;
39188;SDS011;24915;50.858;4.376;2022-11-15T05:47:33;16.05;;;5.10;;
39188;SDS011;24915;50.858;4.376;2022-11-15T05:50:01;11.43;;;5.05;;
39188;SDS011;24915;50.858;4.376;2022-11-15T05:52:27;10.98;;;5.53;;
39188;SDS011;24915;50.858;4.376;2022-11-15T05:54:56;15.88;;;5.50;;
39188;SDS011;24915;50.858;4.376;2022-11-15T05:57:23;13.43;;;5.07;;
39188;SDS011;24915;50.858;4.376;2022-11-15T05:59:49;15.10;;;5.35;;
39188;SDS011;24915;50.858;4.376;2022-11-15T06:02:16;14.93;;;5.43;;
39188;SDS011;24915;50.858;4.376;2022-11-15T06:04:41;12.82;;;5.72;;
39188;SDS011;24915;50.858;4.376;2022-11-15T06:07:07;9.18;;;4.80;;
39188;SDS011;24915;50.858;4.376;2022-11-15T06:09:32;14.23;;;5.30;;
39188;SDS011;24915;50.858;4.376;2022-11-15T06:11:58;10.45;;;5.15;;
39188;SDS011;24915;50.858;4.376;2022-11-15T06:14:24;15.23;;;5.60;;
39188;SDS011;24915;50.858;4.376;2022-11-15T06:16:50;13.52;;;5.80;;
39188;SDS011;24915;50.858;4.376;2022-11-15T06:19:15;12.98;;;5.78;;
39188;SDS011;24915;50.858;4.376;2022-11-15T06:21:41;15.57;;;5.63;;
39188;SDS011;24915;50.858;4.376;2022-11-15T06:24:07;13.27;;;5.47;;
39188;SDS011;24915;50.858;4.376;2022-11-15T06:26:33;13.02;;;4.82;;
39188;SDS011;24915;50.858;4.376;2022-11-15T06:28:59;10.48;;;4.85;;
39188;SDS011;24915;50.858;4.376;2022-11-15T06:31:24;10.13;;;4.47;;
39188;SDS011;24915;50.858;4.376;2022-11-15T06:33:50;14.90;;;5.30;;
39188;SDS011;24915;50.858;4.376;2022-11-15T06:36:16;18.27;;;5.38;;
39188;SDS011;24915;50.858;4.376;2022-11-15T06:38:42;7.07;;;4.25;;
39188;SDS011;24915;50.858;4.376;2022-11-15T06:41:09;9.20;;;4.10;;
39188;SDS011;24915;50.858;4.376;2022-11-15T06:43:36;10.63;;;4.38;;
39188;SDS011;24915;50.858;4.376;2022-11-15T06:46:03;13.25;;;4.47;;
39188;SDS011;24915;50.858;4.376;2022-11-15T06:48:29;10.38;;;4.90;;
39188;SDS011;24915;50.858;4.376;2022-11-15T06:51:00;17.60;;;4.57;;
39188;SDS011;24915;50.858;4.376;2022-11-15T06:53:26;10.82;;;4.97;;
39188;SDS011;24915;50.858;4.376;2022-11-15T06:55:52;7.55;;;4.68;;
39188;SDS011;24915;50.858;4.376;2022-11-15T06:58:18;10.25;;;4.68;;
39188;SDS011;24915;50.858;4.376;2022-11-15T07:00:45;12.75;;;5.13;;
39188;SDS011;24915;50.858;4.376;2022-11-15T07:03:11;17.00;;;5.22;;
39188;SDS011;24915;50.858;4.376;2022-11-15T07:05:37;12.52;;;4.90;;
39188;SDS011;24915;50.858;4.376;2022-11-15T07:08:03;22.40;;;5.28;;
39188;SDS011;24915;50.858;4.376;2022-11-15T07:10:29;10.75;;;4.60;;
39188;SDS011;24915;50.858;4.376;2022-11-15T07:12:55;7.45;;;5.07;;
39188;SDS011;24915;50.858;4.376;2022-11-15T07:15:23;13.23;;;4.53;;
39188;SDS011;24915;50.858;4.376;2022-11-15T07:17:50;17.08;;;5.15;;
39188;SDS011;24915;50.858;4.376;2022-11-15T07:20:16;8.57;;;4.50;;
39188;SDS011;24915;50.858;4.376;2022-11-15T07:22:42;9.50;;;4.80;;
39188;SDS011;24915;50.858;4.376;2022-11-15T07:25:10;7.03;;;4.22;;
39188;SDS011;24915;50.858;4.376;2022-11-15T07:27:36;9.88;;;4.68;;
39188;SDS011;24915;50.858;4.376;2022-11-15T07:30:02;10.25;;;4.60;;
39188;SDS011;24915;50.858;4.376;2022-11-15T07:32:29;8.40;;;3.75;;
39188;SDS011;24915;50.858;4.376;2022-11-15T07:34:54;8.60;;;4.25;;
39188;SDS011;24915;50.858;4.376;2022-11-15T07:37:20;15.02;;;4.72;;
39188;SDS011;24915;50.858;4.376;2022-11-15T07:39:46;12.63;;;4.38;;
39188;SDS011;24915;50.858;4.376;2022-11-15T07:42:12;12.10;;;4.28;;
39188;SDS011;24915;50.858;4.376;2022-11-15T07:44:56;8.23;;;4.43;;
39188;SDS011;24915;50.858;4.376;2022-11-15T07:47:21;6.60;;;4.18;;
39188;SDS011;24915;50.858;4.376;2022-11-15T07:49:47;8.48;;;4.38;;
39188;SDS011;24915;50.858;4.376;2022-11-15T07:52:13;11.20;;;4.15;;
39188;SDS011;24915;50.858;4.376;2022-11-15T07:54:39;10.70;;;4.47;;
39188;SDS011;24915;50.858;4.376;2022-11-15T07:57:05;7.03;;;4.63;;
39188;SDS011;24915;50.858;4.376;2022-11-15T07:59:32;10.00;;;3.83;;
39188;SDS011;24915;50.858;4.376;2022-11-15T08:02:04;12.98;;;4.10;;
39188;SDS011;24915;50.858;4.376;2022-11-15T08:04:29;7.85;;;4.00;;
39188;SDS011;24915;50.858;4.376;2022-11-15T08:06:55;8.45;;;3.92;;
39188;SDS011;24915;50.858;4.376;2022-11-15T08:09:22;11.05;;;3.92;;
39188;SDS011;24915;50.858;4.376;2022-11-15T08:11:47;9.68;;;4.35;;
39188;SDS011;24915;50.858;4.376;2022-11-15T08:14:13;13.20;;;4.28;;
39188;SDS011;24915;50.858;4.376;2022-11-15T08:16:39;11.43;;;4.30;;
39188;SDS011;24915;50.858;4.376;2022-11-15T08:19:04;9.38;;;4.38;;
39188;SDS011;24915;50.858;4.376;2022-11-15T08:21:30;7.53;;;4.10;;
39188;SDS011;24915;50.858;4.376;2022-11-15T08:23:56;10.05;;;4.32;;
39188;SDS011;24915;50.858;4.376;2022-11-15T08:26:21;14.15;;;3.70;;
39188;SDS011;24915;50.858;4.376;2022-11-15T08:28:47;6.95;;;2.60;;
39188;SDS011;24915;50.858;4.376;2022-11-15T08:31:14;6.28;;;2.55;;
39188;SDS011;24915;50.858;4.376;2022-11-15T08:33:42;9.73;;;3.08;;
39188;SDS011;24915;50.858;4.376;2022-11-15T08:36:11;8.18;;;2.50;;
39188;SDS011;24915;50.858;4.376;2022-11-15T08:38:39;7.95;;;2.80;;
39188;SDS011;24915;50.858;4.376;2022-11-15T08:41:05;9.32;;;2.60;;
39188;SDS011;24915;50.858;4.376;2022-11-15T08:43:31;10.68;;;3.20;;
39188;SDS011;24915;50.858;4.376;2022-11-15T08:45:57;6.43;;;2.55;;
39188;SDS011;24915;50.858;4.376;2022-11-15T08:48:23;9.38;;;3.20;;
39188;SDS011;24915;50.858;4.376;2022-11-15T08:50:52;7.35;;;3.00;;
39188;SDS011;24915;50.858;4.376;2022-11-15T08:53:21;6.90;;;2.85;;
39188;SDS011;24915;50.858;4.376;2022-11-15T08:55:47;12.10;;;2.70;;
39188;SDS011;24915;50.858;4.376;2022-11-15T08:58:13;6.75;;;2.70;;
39188;SDS011;24915;50.858;4.376;2022-11-15T09:00:38;9.50;;;2.95;;
39188;SDS011;24915;50.858;4.376;2022-11-15T09:03:05;11.27;;;2.35;;
39188;SDS011;24915;50.858;4.376;2022-11-15T09:05:31;7.68;;;2.40;;
39188;SDS011;24915;50.858;4.376;2022-11-15T09:07:57;7.80;;;2.35;;
39188;SDS011;24915;50.858;4.376;2022-11-15T09:10:23;7.15;;;3.05;;
39188;SDS011;24915;50.858;4.376;2022-11-15T09:12:49;6.85;;;2.20;;
39188;SDS011;24915;50.858;4.376;2022-11-15T09:15:15;7.20;;;2.33;;
39188;SDS011;24915;50.858;4.376;2022-11-15T09:17:41;7.05;;;1.90;;
39188;SDS011;24915;50.858;4.376;2022-11-15T09:20:07;22.02;;;3.95;;
39188;SDS011;24915;50.858;4.376;2022-11-15T09:22:34;34.40;;;6.82;;
39188;SDS011;24915;50.858;4.376;2022-11-15T09:25:01;23.48;;;4.50;;
39188;SDS011;24915;50.858;4.376;2022-11-15T09:27:28;27.67;;;5.72;;
39188;SDS011;24915;50.858;4.376;2022-11-15T09:29:54;29.33;;;7.05;;
39188;SDS011;24915;50.858;4.376;2022-11-15T09:32:20;40.88;;;8.55;;
39188;SDS011;24915;50.858;4.376;2022-11-15T09:34:48;55.60;;;9.32;;
39188;SDS011;24915;50.858;4.376;2022-11-15T09:37:16;68.78;;;12.07;;
39188;SDS011;24915;50.858;4.376;2022-11-15T09:39:42;20.13;;;3.78;;
39188;SDS011;24915;50.858;4.376;2022-11-15T09:49:57;18.00;;;7.32;;
39188;SDS011;24915;50.858;4.376;2022-11-15T09:52:25;19.65;;;8.68;;
39188;SDS011;24915;50.858;4.376;2022-11-15T09:54:52;26.45;;;10.35;;
39188;SDS011;24915;50.858;4.376;2022-11-15T09:57:21;15.77;;;5.18;;
39188;SDS011;24915;50.858;4.376;2022-11-15T10:05:11;10.75;;;2.28;;
39188;SDS011;24915;50.858;4.376;2022-11-15T10:07:48;8.75;;;2.05;;
39188;SDS011;24915;50.858;4.376;2022-11-15T10:10:22;15.20;;;2.22;;
39188;SDS011;24915;50.858;4.376;2022-11-15T10:13:12;23.55;;;7.38;;
39188;SDS011;24915;50.858;4.376;2022-11-15T10:15:43;16.23;;;4.40;;
39188;SDS011;24915;50.858;4.376;2022-11-15T10:21:13;11.30;;;2.50;;
39188;SDS011;24915;50.858;4.376;2022-11-15T10:23:42;20.17;;;6.07;;
39188;SDS011;24915;50.858;4.376;2022-11-15T10:26:10;8.13;;;2.38;;
39188;SDS011;24915;50.858;4.376;2022-11-15T10:28:39;16.73;;;7.05;;
39188;SDS011;24915;50.858;4.376;2022-11-15T10:31:20;14.35;;;2.58;;
39188;SDS011;24915;50.858;4.376;2022-11-15T10:33:51;22.40;;;3.78;;
39188;SDS011;24915;50.858;4.376;2022-11-15T10:36:22;46.55;;;10.75;;
39188;SDS011;24915;50.858;4.376;2022-11-15T10:41:17;38.03;;;8.88;;
39188;SDS011;24915;50.858;4.376;2022-11-15T10:43:45;35.75;;;6.70;;
39188;SDS011;24915;50.858;4.376;2022-11-15T10:46:26;22.13;;;4.38;;
39188;SDS011;24915;50.858;4.376;2022-11-15T10:48:52;8.40;;;2.00;;
39188;SDS011;24915;50.858;4.376;2022-11-15T10:51:21;11.57;;;2.05;;
39188;SDS011;24915;50.858;4.376;2022-11-15T10:53:53;13.38;;;2.20;;
39188;SDS011;24915;50.858;4.376;2022-11-15T10:56:21;10.27;;;1.70;;
39188;SDS011;24915;50.858;4.376;2022-11-15T10:58:53;10.02;;;1.85;;
39188;SDS011;24915;50.858;4.376;2022-11-15T11:04:00;8.10;;;1.63;;
39188;SDS011;24915;50.858;4.376;2022-11-15T11:06:27;11.05;;;2.20;;
39188;SDS011;24915;50.858;4.376;2022-11-15T11:09:01;7.50;;;1.90;;
39188;SDS011;24915;50.858;4.376;2022-11-15T11:11:47;7.93;;;2.03;;
39188;SDS011;24915;50.858;4.376;2022-11-15T11:14:21;6.95;;;1.58;;
39188;SDS011;24915;50.858;4.376;2022-11-15T11:47:16;5.65;;;1.83;;
39188;SDS011;24915;50.858;4.376;2022-11-15T11:49:49;8.68;;;1.70;;
39188;SDS011;24915;50.858;4.376;2022-11-15T11:52:38;8.80;;;2.40;;
39188;SDS011;24915;50.858;4.376;2022-11-15T11:55:18;9.02;;;2.53;;
39188;SDS011;24915;50.858;4.376;2022-11-15T12:00:47;30.63;;;7.13;;
39188;SDS011;24915;50.858;4.376;2022-11-15T12:11:42;15.73;;;4.45;;
39188;SDS011;24915;50.858;4.376;2022-11-15T12:17:16;7.13;;;2.10;;
39188;SDS011;24915;50.858;4.376;2022-11-15T12:19:46;7.00;;;1.63;;
39188;SDS011;24915;50.858;4.376;2022-11-15T12:22:15;6.25;;;1.98;;
39188;SDS011;24915;50.858;4.376;2022-11-15T12:30:30;14.38;;;1.90;;
39188;SDS011;24915;50.858;4.376;2022-11-15T12:35:58;10.93;;;3.38;;
39188;SDS011;24915;50.858;4.376;2022-11-15T12:39:00;6.20;;;1.70;;
39188;SDS011;24915;50.858;4.376;2022-11-15T12:49:50;8.45;;;2.05;;
39188;SDS011;24915;50.858;4.376;2022-11-15T12:52:17;5.70;;;1.70;;
39188;SDS011;24915;50.858;4.376;2022-11-15T12:59:51;7.38;;;1.48;;
39188;SDS011;24915;50.858;4.376;2022-11-15T13:04:52;3.25;;;1.35;;
39188;SDS011;24915;50.858;4.376;2022-11-15T13:10:01;7.32;;;1.98;;
39188;SDS011;24915;50.858;4.376;2022-11-15T13:17:45;6.00;;;2.03;;
39188;SDS011;24915;50.858;4.376;2022-11-15T13:22:42;6.68;;;1.67;;
39188;SDS011;24915;50.858;4.376;2022-11-15T13:27:58;5.30;;;1.88;;
39188;SDS011;24915;50.858;4.376;2022-11-15T13:30:27;6.30;;;1.88;;
39188;SDS011;24915;50.858;4.376;2022-11-15T13:32:54;5.43;;;1.58;;
39188;SDS011;24915;50.858;4.376;2022-11-15T13:35:21;5.40;;;1.92;;
39188;SDS011;24915;50.858;4.376;2022-11-15T13:37:52;7.03;;;1.42;;
39188;SDS011;24915;50.858;4.376;2022-11-15T13:40:25;5.68;;;1.90;;
39188;SDS011;24915;50.858;4.376;2022-11-15T13:42:55;6.75;;;2.47;;
39188;SDS011;24915;50.858;4.376;2022-11-15T13:45:22;13.82;;;4.07;;
39188;SDS011;24915;50.858;4.376;2022-11-15T13:47:55;5.65;;;2.20;;
39188;SDS011;24915;50.858;4.376;2022-11-15T13:50:23;6.68;;;2.28;;
39188;SDS011;24915;50.858;4.376;2022-11-15T13:52:52;3.20;;;1.50;;
39188;SDS011;24915;50.858;4.376;2022-11-15T13:55:21;3.80;;;1.77;;
39188;SDS011;24915;50.858;4.376;2022-11-15T13:57:49;4.43;;;1.45;;
39188;SDS011;24915;50.858;4.376;2022-11-15T14:06:05;7.47;;;1.85;;
39188;SDS011;24915;50.858;4.376;2022-11-15T14:08:32;4.53;;;1.73;;
39188;SDS011;24915;50.858;4.376;2022-11-15T14:16:33;6.15;;;1.75;;
39188;SDS011;24915;50.858;4.376;2022-11-15T14:19:02;9.02;;;1.90;;
39188;SDS011;24915;50.858;4.376;2022-11-15T14:21:29;6.45;;;1.80;;
39188;SDS011;24915;50.858;4.376;2022-11-15T14:26:44;5.97;;;1.83;;
39188;SDS011;24915;50.858;4.376;2022-11-15T14:29:26;9.35;;;2.00;;
39188;SDS011;24915;50.858;4.376;2022-11-15T14:31:54;5.05;;;2.20;;
39188;SDS011;24915;50.858;4.376;2022-11-15T14:34:38;4.03;;;2.63;;
39188;SDS011;24915;50.858;4.376;2022-11-15T14:37:04;6.15;;;2.80;;
39188;SDS011;24915;50.858;4.376;2022-11-15T14:39:30;5.72;;;2.70;;
39188;SDS011;24915;50.858;4.376;2022-11-15T14:41:55;4.50;;;2.60;;
39188;SDS011;24915;50.858;4.376;2022-11-15T14:44:21;5.80;;;2.58;;
39188;SDS011;24915;50.858;4.376;2022-11-15T14:46:47;11.55;;;3.60;;
39188;SDS011;24915;50.858;4.376;2022-11-15T14:49:13;4.93;;;2.25;;
39188;SDS011;24915;50.858;4.376;2022-11-15T14:51:40;5.63;;;2.25;;
39188;SDS011;24915;50.858;4.376;2022-11-15T14:54:09;6.63;;;2.38;;
39188;SDS011;24915;50.858;4.376;2022-11-15T14:56:35;5.07;;;2.35;;
39188;SDS011;24915;50.858;4.376;2022-11-15T14:59:01;5.95;;;2.10;;
39188;SDS011;24915;50.858;4.376;2022-11-15T15:01:29;5.68;;;1.90;;
39188;SDS011;24915;50.858;4.376;2022-11-15T15:03:55;4.13;;;1.65;;
39188;SDS011;24915;50.858;4.376;2022-11-15T15:06:23;8.02;;;4.30;;
39188;SDS011;24915;50.858;4.376;2022-11-15T15:08:48;6.43;;;2.30;;
39188;SDS011;24915;50.858;4.376;2022-11-15T15:11:18;5.13;;;2.95;;
39188;SDS011;24915;50.858;4.376;2022-11-15T15:13:47;9.65;;;3.33;;
39188;SDS011;24915;50.858;4.376;2022-11-15T15:16:13;5.90;;;2.70;;
39188;SDS011;24915;50.858;4.376;2022-11-15T15:18:38;5.53;;;3.60;;
39188;SDS011;24915;50.858;4.376;2022-11-15T15:21:04;7.75;;;3.20;;
39188;SDS011;24915;50.858;4.376;2022-11-15T15:23:52;7.35;;;3.80;;
39188;SDS011;24915;50.858;4.376;2022-11-15T15:26:21;6.28;;;5.00;;
39188;SDS011;24915;50.858;4.376;2022-11-15T15:28:50;5.15;;;3.08;;
39188;SDS011;24915;50.858;4.376;2022-11-15T15:31:17;5.55;;;3.35;;
39188;SDS011;24915;50.858;4.376;2022-11-15T15:33:43;4.57;;;3.42;;
39188;SDS011;24915;50.858;4.376;2022-11-15T15:36:12;5.35;;;3.58;;
39188;SDS011;24915;50.858;4.376;2022-11-15T15:38:40;7.05;;;2.95;;
39188;SDS011;24915;50.858;4.376;2022-11-15T15:41:12;4.88;;;2.95;;
39188;SDS011;24915;50.858;4.376;2022-11-15T15:43:39;6.30;;;2.83;;
39188;SDS011;24915;50.858;4.376;2022-11-15T15:46:08;12.50;;;3.30;;
39188;SDS011;24915;50.858;4.376;2022-11-15T15:48:41;4.18;;;2.85;;
39188;SDS011;24915;50.858;4.376;2022-11-15T15:51:07;6.53;;;3.28;;
39188;SDS011;24915;50.858;4.376;2022-11-15T15:53:33;6.93;;;3.75;;
39188;SDS011;24915;50.858;4.376;2022-11-15T15:55:59;5.15;;;3.58;;
39188;SDS011;24915;50.858;4.376;2022-11-15T15:58:25;5.95;;;3.22;;
39188;SDS011;24915;50.858;4.376;2022-11-15T16:00:51;7.65;;;4.00;;
39188;SDS011;24915;50.858;4.376;2022-11-15T16:03:16;8.90;;;4.72;;
39188;SDS011;24915;50.858;4.376;2022-11-15T16:05:42;4.10;;;2.42;;
39188;SDS011;24915;50.858;4.376;2022-11-15T16:08:12;3.88;;;2.92;;
39188;SDS011;24915;50.858;4.376;2022-11-15T16:10:46;6.38;;;4.03;;
39188;SDS011;24915;50.858;4.376;2022-11-15T16:13:12;3.40;;;3.08;;
39188;SDS011;24915;50.858;4.376;2022-11-15T16:15:38;3.95;;;2.85;;
39188;SDS011;24915;50.858;4.376;2022-11-15T16:18:04;7.57;;;4.53;;
39188;SDS011;24915;50.858;4.376;2022-11-15T16:20:34;6.72;;;3.55;;
39188;SDS011;24915;50.858;4.376;2022-11-15T16:23:13;8.88;;;3.70;;
39188;SDS011;24915;50.858;4.376;2022-11-15T16:25:49;4.45;;;2.92;;
39188;SDS011;24915;50.858;4.376;2022-11-15T16:33:30;17.70;;;11.05;;
39188;SDS011;24915;50.858;4.376;2022-11-15T16:35:56;9.10;;;6.18;;
39188;SDS011;24915;50.858;4.376;2022-11-15T16:38:21;5.07;;;4.07;;
39188;SDS011;24915;50.858;4.376;2022-11-15T16:40:47;6.63;;;4.22;;
39188;SDS011;24915;50.858;4.376;2022-11-15T16:43:13;8.35;;;4.20;;
39188;SDS011;24915;50.858;4.376;2022-11-15T16:45:39;5.70;;;3.80;;
39188;SDS011;24915;50.858;4.376;2022-11-15T16:48:05;5.10;;;3.50;;
39188;SDS011;24915;50.858;4.376;2022-11-15T16:50:32;5.65;;;3.53;;
39188;SDS011;24915;50.858;4.376;2022-11-15T16:53:05;4.05;;;3.40;;
39188;SDS011;24915;50.858;4.376;2022-11-15T16:55:31;6.28;;;4.32;;
39188;SDS011;24915;50.858;4.376;2022-11-15T16:57:57;8.90;;;4.45;;
39188;SDS011;24915;50.858;4.376;2022-11-15T17:00:28;6.88;;;4.63;;
39188;SDS011;24915;50.858;4.376;2022-11-15T17:02:54;5.63;;;4.30;;
39188;SDS011;24915;50.858;4.376;2022-11-15T17:05:21;6.15;;;4.57;;
39188;SDS011;24915;50.858;4.376;2022-11-15T17:07:49;7.45;;;5.40;;
39188;SDS011;24915;50.858;4.376;2022-11-15T17:10:20;6.50;;;4.53;;
39188;SDS011;24915;50.858;4.376;2022-11-15T17:12:50;6.78;;;4.82;;
39188;SDS011;24915;50.858;4.376;2022-11-15T17:15:16;4.47;;;4.00;;
39188;SDS011;24915;50.858;4.376;2022-11-15T17:17:42;4.90;;;4.35;;
39188;SDS011;24915;50.858;4.376;2022-11-15T17:20:13;5.18;;;3.88;;
39188;SDS011;24915;50.858;4.376;2022-11-15T17:22:40;9.95;;;6.88;;
39188;SDS011;24915;50.858;4.376;2022-11-15T17:25:06;12.07;;;7.05;;